sensor_id;sensor_type;location;lat;lon;timestamp;P1;durP1;ratioP1;P2;durP2;ratioP2
72601;SDS011;60644;55.858;37.390;2022-10-17T00:00:04;7.93;;;2.47;;
72601;SDS011;60644;55.858;37.390;2022-10-17T00:02:31;8.38;;;2.40;;
72601;SDS011;60644;55.858;37.390;2022-10-17T00:04:57;8.57;;;2.53;;
72601;SDS011;60644;55.858;37.390;2022-10-17T00:07:22;7.87;;;2.57;;
72601;SDS011;60644;55.858;37.390;2022-10-17T00:09:48;8.07;;;2.78;;
72601;SDS011;60644;55.858;37.390;2022-10-17T00:12:14;8.98;;;2.60;;
72601;SDS011;60644;55.858;37.390;2022-10-17T00:14:40;8.13;;;2.97;;
72601;SDS011;60644;55.858;37.390;2022-10-17T00:17:05;8.90;;;2.75;;
72601;SDS011;60644;55.858;37.390;2022-10-17T00:19:31;6.73;;;2.33;;
72601;SDS011;60644;55.858;37.390;2022-10-17T00:21:57;7.80;;;2.38;;
72601;SDS011;60644;55.858;37.390;2022-10-17T00:24:23;10.18;;;2.47;;
72601;SDS011;60644;55.858;37.390;2022-10-17T00:26:50;7.72;;;2.13;;
72601;SDS011;60644;55.858;37.390;2022-10-17T00:29:16;7.45;;;2.45;;
72601;SDS011;60644;55.858;37.390;2022-10-17T00:31:41;7.67;;;2.60;;
72601;SDS011;60644;55.858;37.390;2022-10-17T00:34:07;6.47;;;2.67;;
72601;SDS011;60644;55.858;37.390;2022-10-17T00:36:33;8.73;;;2.33;;
72601;SDS011;60644;55.858;37.390;2022-10-17T00:38:59;6.33;;;2.23;;
72601;SDS011;60644;55.858;37.390;2022-10-17T00:41:27;8.27;;;2.55;;
72601;SDS011;60644;55.858;37.390;2022-10-17T00:46:27;8.20;;;2.50;;
72601;SDS011;60644;55.858;37.390;2022-10-17T00:48:59;6.95;;;2.38;;
72601;SDS011;60644;55.858;37.390;2022-10-17T00:51:40;6.45;;;2.60;;
72601;SDS011;60644;55.858;37.390;2022-10-17T00:54:18;9.57;;;2.80;;
72601;SDS011;60644;55.858;37.390;2022-10-17T00:56:47;6.65;;;2.45;;
72601;SDS011;60644;55.858;37.390;2022-10-17T00:59:14;6.35;;;2.25;;
72601;SDS011;60644;55.858;37.390;2022-10-17T01:01:45;5.88;;;2.15;;
72601;SDS011;60644;55.858;37.390;2022-10-17T01:04:18;7.13;;;2.30;;
72601;SDS011;60644;55.858;37.390;2022-10-17T01:06:44;6.53;;;2.63;;
72601;SDS011;60644;55.858;37.390;2022-10-17T01:09:10;8.43;;;2.70;;
72601;SDS011;60644;55.858;37.390;2022-10-17T01:19:34;7.85;;;2.22;;
72601;SDS011;60644;55.858;37.390;2022-10-17T01:24:47;5.80;;;2.20;;
72601;SDS011;60644;55.858;37.390;2022-10-17T01:38:34;5.63;;;2.07;;
72601;SDS011;60644;55.858;37.390;2022-10-17T01:43:46;8.38;;;2.22;;
72601;SDS011;60644;55.858;37.390;2022-10-17T01:46:39;5.90;;;1.88;;
72601;SDS011;60644;55.858;37.390;2022-10-17T01:49:08;7.95;;;2.60;;
72601;SDS011;60644;55.858;37.390;2022-10-17T01:51:44;8.67;;;2.60;;
72601;SDS011;60644;55.858;37.390;2022-10-17T01:54:13;6.50;;;2.05;;
72601;SDS011;60644;55.858;37.390;2022-10-17T01:56:45;7.15;;;2.55;;
72601;SDS011;60644;55.858;37.390;2022-10-17T01:59:16;6.18;;;2.28;;
72601;SDS011;60644;55.858;37.390;2022-10-17T02:01:46;9.85;;;3.20;;
72601;SDS011;60644;55.858;37.390;2022-10-17T02:04:14;11.43;;;2.60;;
72601;SDS011;60644;55.858;37.390;2022-10-17T02:06:41;6.57;;;2.10;;
72601;SDS011;60644;55.858;37.390;2022-10-17T02:09:22;7.20;;;2.50;;
72601;SDS011;60644;55.858;37.390;2022-10-17T02:20:12;7.15;;;2.55;;
72601;SDS011;60644;55.858;37.390;2022-10-17T02:23:21;7.65;;;2.72;;
72601;SDS011;60644;55.858;37.390;2022-10-17T02:26:09;6.70;;;2.30;;
72601;SDS011;60644;55.858;37.390;2022-10-17T02:28:46;6.43;;;2.38;;
72601;SDS011;60644;55.858;37.390;2022-10-17T02:31:44;7.47;;;2.78;;
72601;SDS011;60644;55.858;37.390;2022-10-17T02:37:14;8.38;;;2.72;;
72601;SDS011;60644;55.858;37.390;2022-10-17T02:39:43;6.80;;;2.53;;
72601;SDS011;60644;55.858;37.390;2022-10-17T02:42:11;8.57;;;2.63;;
72601;SDS011;60644;55.858;37.390;2022-10-17T02:44:39;7.22;;;3.03;;
72601;SDS011;60644;55.858;37.390;2022-10-17T02:47:12;6.82;;;2.50;;
72601;SDS011;60644;55.858;37.390;2022-10-17T02:49:50;7.38;;;2.33;;
72601;SDS011;60644;55.858;37.390;2022-10-17T02:52:26;9.83;;;2.50;;
72601;SDS011;60644;55.858;37.390;2022-10-17T02:55:41;6.40;;;2.35;;
72601;SDS011;60644;55.858;37.390;2022-10-17T02:57:58;6.72;;;2.88;;
72601;SDS011;60644;55.858;37.390;2022-10-17T03:00:28;7.82;;;2.40;;
72601;SDS011;60644;55.858;37.390;2022-10-17T03:02:55;7.28;;;2.80;;
72601;SDS011;60644;55.858;37.390;2022-10-17T03:05:22;6.37;;;2.17;;
72601;SDS011;60644;55.858;37.390;2022-10-17T03:07:50;8.40;;;4.00;;
72601;SDS011;60644;55.858;37.390;2022-10-17T03:10:17;10.57;;;2.72;;
72601;SDS011;60644;55.858;37.390;2022-10-17T03:12:43;6.88;;;2.60;;
72601;SDS011;60644;55.858;37.390;2022-10-17T03:15:11;7.47;;;3.25;;
72601;SDS011;60644;55.858;37.390;2022-10-17T03:17:37;6.77;;;2.50;;
72601;SDS011;60644;55.858;37.390;2022-10-17T03:20:03;6.95;;;3.00;;
72601;SDS011;60644;55.858;37.390;2022-10-17T03:22:30;7.55;;;2.80;;
72601;SDS011;60644;55.858;37.390;2022-10-17T03:24:58;6.85;;;2.90;;
72601;SDS011;60644;55.858;37.390;2022-10-17T03:27:24;8.07;;;2.83;;
72601;SDS011;60644;55.858;37.390;2022-10-17T03:29:50;8.75;;;2.80;;
72601;SDS011;60644;55.858;37.390;2022-10-17T03:32:16;11.90;;;3.08;;
72601;SDS011;60644;55.858;37.390;2022-10-17T03:34:42;7.68;;;3.10;;
72601;SDS011;60644;55.858;37.390;2022-10-17T03:37:08;7.18;;;2.50;;
72601;SDS011;60644;55.858;37.390;2022-10-17T03:39:37;9.07;;;2.75;;
72601;SDS011;60644;55.858;37.390;2022-10-17T03:42:02;8.48;;;3.33;;
72601;SDS011;60644;55.858;37.390;2022-10-17T03:44:28;6.90;;;2.60;;
72601;SDS011;60644;55.858;37.390;2022-10-17T03:46:54;6.68;;;2.55;;
72601;SDS011;60644;55.858;37.390;2022-10-17T03:49:21;9.65;;;2.88;;
72601;SDS011;60644;55.858;37.390;2022-10-17T03:51:47;8.13;;;2.88;;
72601;SDS011;60644;55.858;37.390;2022-10-17T03:54:15;8.93;;;3.33;;
72601;SDS011;60644;55.858;37.390;2022-10-17T03:56:40;8.30;;;3.42;;
72601;SDS011;60644;55.858;37.390;2022-10-17T03:59:14;6.35;;;2.05;;
72601;SDS011;60644;55.858;37.390;2022-10-17T04:01:46;8.60;;;3.10;;
72601;SDS011;60644;55.858;37.390;2022-10-17T04:04:12;8.57;;;2.90;;
72601;SDS011;60644;55.858;37.390;2022-10-17T04:06:39;7.28;;;2.75;;
72601;SDS011;60644;55.858;37.390;2022-10-17T04:09:05;6.53;;;2.35;;
72601;SDS011;60644;55.858;37.390;2022-10-17T04:11:48;8.07;;;2.85;;
72601;SDS011;60644;55.858;37.390;2022-10-17T04:14:15;8.27;;;2.58;;
72601;SDS011;60644;55.858;37.390;2022-10-17T04:16:41;12.95;;;2.83;;
72601;SDS011;60644;55.858;37.390;2022-10-17T04:19:12;8.63;;;2.33;;
72601;SDS011;60644;55.858;37.390;2022-10-17T04:21:42;7.57;;;2.63;;
72601;SDS011;60644;55.858;37.390;2022-10-17T04:24:09;11.95;;;2.70;;
72601;SDS011;60644;55.858;37.390;2022-10-17T04:27:14;7.80;;;2.73;;
72601;SDS011;60644;55.858;37.390;2022-10-17T04:29:43;7.93;;;3.25;;
72601;SDS011;60644;55.858;37.390;2022-10-17T04:32:15;7.43;;;2.17;;
72601;SDS011;60644;55.858;37.390;2022-10-17T04:34:48;11.60;;;2.90;;
72601;SDS011;60644;55.858;37.390;2022-10-17T04:37:15;7.65;;;2.72;;
72601;SDS011;60644;55.858;37.390;2022-10-17T04:39:42;7.20;;;3.13;;
72601;SDS011;60644;55.858;37.390;2022-10-17T04:42:09;7.15;;;2.53;;
72601;SDS011;60644;55.858;37.390;2022-10-17T04:44:35;8.13;;;2.72;;
72601;SDS011;60644;55.858;37.390;2022-10-17T04:47:02;10.27;;;2.60;;
72601;SDS011;60644;55.858;37.390;2022-10-17T04:49:28;8.37;;;2.90;;
72601;SDS011;60644;55.858;37.390;2022-10-17T04:51:59;8.05;;;3.30;;
72601;SDS011;60644;55.858;37.390;2022-10-17T04:54:30;8.05;;;3.50;;
72601;SDS011;60644;55.858;37.390;2022-10-17T04:57:04;8.90;;;2.63;;
72601;SDS011;60644;55.858;37.390;2022-10-17T04:59:30;7.53;;;3.10;;
72601;SDS011;60644;55.858;37.390;2022-10-17T05:02:10;9.60;;;3.58;;
72601;SDS011;60644;55.858;37.390;2022-10-17T05:04:36;8.82;;;3.55;;
72601;SDS011;60644;55.858;37.390;2022-10-17T05:07:03;8.73;;;2.83;;
72601;SDS011;60644;55.858;37.390;2022-10-17T05:09:47;9.18;;;3.10;;
72601;SDS011;60644;55.858;37.390;2022-10-17T05:12:16;9.50;;;2.22;;
72601;SDS011;60644;55.858;37.390;2022-10-17T05:14:43;10.27;;;3.08;;
72601;SDS011;60644;55.858;37.390;2022-10-17T05:17:09;7.60;;;2.72;;
72601;SDS011;60644;55.858;37.390;2022-10-17T05:19:36;7.43;;;3.22;;
72601;SDS011;60644;55.858;37.390;2022-10-17T05:22:03;6.93;;;2.80;;
72601;SDS011;60644;55.858;37.390;2022-10-17T05:24:29;6.97;;;2.50;;
72601;SDS011;60644;55.858;37.390;2022-10-17T05:26:54;9.48;;;2.50;;
72601;SDS011;60644;55.858;37.390;2022-10-17T05:29:21;11.10;;;2.90;;
72601;SDS011;60644;55.858;37.390;2022-10-17T05:31:51;8.98;;;2.83;;
72601;SDS011;60644;55.858;37.390;2022-10-17T05:34:18;9.07;;;2.72;;
72601;SDS011;60644;55.858;37.390;2022-10-17T05:36:44;11.00;;;3.42;;
72601;SDS011;60644;55.858;37.390;2022-10-17T05:39:12;9.00;;;2.85;;
72601;SDS011;60644;55.858;37.390;2022-10-17T05:41:40;9.00;;;2.78;;
72601;SDS011;60644;55.858;37.390;2022-10-17T05:44:06;12.30;;;3.33;;
72601;SDS011;60644;55.858;37.390;2022-10-17T05:46:41;8.15;;;2.83;;
72601;SDS011;60644;55.858;37.390;2022-10-17T05:49:08;9.75;;;3.10;;
72601;SDS011;60644;55.858;37.390;2022-10-17T05:51:35;9.45;;;2.55;;
72601;SDS011;60644;55.858;37.390;2022-10-17T05:54:04;8.30;;;2.33;;
72601;SDS011;60644;55.858;37.390;2022-10-17T05:56:31;10.10;;;2.90;;
72601;SDS011;60644;55.858;37.390;2022-10-17T05:58:58;7.57;;;2.85;;
72601;SDS011;60644;55.858;37.390;2022-10-17T06:01:45;9.45;;;3.17;;
72601;SDS011;60644;55.858;37.390;2022-10-17T06:04:11;8.05;;;3.13;;
72601;SDS011;60644;55.858;37.390;2022-10-17T06:06:37;7.43;;;3.10;;
72601;SDS011;60644;55.858;37.390;2022-10-17T06:09:04;7.28;;;2.88;;
72601;SDS011;60644;55.858;37.390;2022-10-17T06:11:34;8.63;;;3.00;;
72601;SDS011;60644;55.858;37.390;2022-10-17T06:14:00;8.50;;;2.97;;
72601;SDS011;60644;55.858;37.390;2022-10-17T06:16:28;7.60;;;2.40;;
72601;SDS011;60644;55.858;37.390;2022-10-17T06:18:54;7.47;;;2.70;;
72601;SDS011;60644;55.858;37.390;2022-10-17T06:21:21;12.73;;;2.95;;
72601;SDS011;60644;55.858;37.390;2022-10-17T06:23:58;8.23;;;3.42;;
72601;SDS011;60644;55.858;37.390;2022-10-17T06:26:28;7.05;;;2.78;;
72601;SDS011;60644;55.858;37.390;2022-10-17T06:28:54;8.27;;;2.47;;
72601;SDS011;60644;55.858;37.390;2022-10-17T06:31:21;7.72;;;2.50;;
72601;SDS011;60644;55.858;37.390;2022-10-17T06:33:47;12.93;;;4.47;;
72601;SDS011;60644;55.858;37.390;2022-10-17T06:36:13;8.63;;;2.70;;
72601;SDS011;60644;55.858;37.390;2022-10-17T06:38:39;8.02;;;2.70;;
72601;SDS011;60644;55.858;37.390;2022-10-17T06:41:17;8.27;;;3.03;;
72601;SDS011;60644;55.858;37.390;2022-10-17T06:43:44;14.90;;;3.10;;
72601;SDS011;60644;55.858;37.390;2022-10-17T06:46:29;7.25;;;2.20;;
72601;SDS011;60644;55.858;37.390;2022-10-17T06:49:01;9.55;;;3.17;;
72601;SDS011;60644;55.858;37.390;2022-10-17T06:51:46;7.88;;;3.03;;
72601;SDS011;60644;55.858;37.390;2022-10-17T06:54:14;8.23;;;2.90;;
72601;SDS011;60644;55.858;37.390;2022-10-17T06:56:49;8.65;;;2.70;;
72601;SDS011;60644;55.858;37.390;2022-10-17T06:59:47;8.43;;;3.28;;
72601;SDS011;60644;55.858;37.390;2022-10-17T07:02:18;7.70;;;3.08;;
72601;SDS011;60644;55.858;37.390;2022-10-17T07:04:45;6.80;;;2.90;;
72601;SDS011;60644;55.858;37.390;2022-10-17T07:07:11;8.43;;;3.47;;
72601;SDS011;60644;55.858;37.390;2022-10-17T07:09:37;6.97;;;2.47;;
72601;SDS011;60644;55.858;37.390;2022-10-17T07:12:03;8.47;;;2.77;;
72601;SDS011;60644;55.858;37.390;2022-10-17T07:14:33;9.77;;;3.50;;
72601;SDS011;60644;55.858;37.390;2022-10-17T07:17:00;8.35;;;3.08;;
72601;SDS011;60644;55.858;37.390;2022-10-17T07:19:29;8.63;;;3.03;;
72601;SDS011;60644;55.858;37.390;2022-10-17T07:21:55;10.73;;;3.50;;
72601;SDS011;60644;55.858;37.390;2022-10-17T07:24:21;8.52;;;3.70;;
72601;SDS011;60644;55.858;37.390;2022-10-17T07:26:55;9.80;;;3.67;;
72601;SDS011;60644;55.858;37.390;2022-10-17T07:29:20;8.13;;;3.20;;
72601;SDS011;60644;55.858;37.390;2022-10-17T07:31:58;11.32;;;4.88;;
72601;SDS011;60644;55.858;37.390;2022-10-17T07:34:24;9.48;;;4.22;;
72601;SDS011;60644;55.858;37.390;2022-10-17T07:36:52;12.93;;;4.15;;
72601;SDS011;60644;55.858;37.390;2022-10-17T07:39:18;10.27;;;3.78;;
72601;SDS011;60644;55.858;37.390;2022-10-17T07:41:44;10.93;;;3.90;;
72601;SDS011;60644;55.858;37.390;2022-10-17T07:44:10;8.27;;;2.80;;
72601;SDS011;60644;55.858;37.390;2022-10-17T07:46:43;9.60;;;3.83;;
72601;SDS011;60644;55.858;37.390;2022-10-17T07:49:09;10.75;;;3.85;;
72601;SDS011;60644;55.858;37.390;2022-10-17T07:51:35;11.40;;;3.70;;
72601;SDS011;60644;55.858;37.390;2022-10-17T07:54:01;9.35;;;4.40;;
72601;SDS011;60644;55.858;37.390;2022-10-17T07:56:28;11.10;;;4.65;;
72601;SDS011;60644;55.858;37.390;2022-10-17T07:58:54;9.33;;;3.60;;
72601;SDS011;60644;55.858;37.390;2022-10-17T08:01:21;10.45;;;4.18;;
72601;SDS011;60644;55.858;37.390;2022-10-17T08:03:47;11.55;;;4.50;;
72601;SDS011;60644;55.858;37.390;2022-10-17T08:06:13;9.77;;;3.70;;
72601;SDS011;60644;55.858;37.390;2022-10-17T08:08:40;8.65;;;3.38;;
72601;SDS011;60644;55.858;37.390;2022-10-17T08:11:07;10.40;;;3.63;;
72601;SDS011;60644;55.858;37.390;2022-10-17T08:13:35;13.75;;;4.38;;
72601;SDS011;60644;55.858;37.390;2022-10-17T08:16:02;10.85;;;4.40;;
72601;SDS011;60644;55.858;37.390;2022-10-17T08:18:30;10.75;;;4.22;;
72601;SDS011;60644;55.858;37.390;2022-10-17T08:20:59;10.07;;;3.45;;
72601;SDS011;60644;55.858;37.390;2022-10-17T08:23:26;10.20;;;3.78;;
72601;SDS011;60644;55.858;37.390;2022-10-17T08:25:53;9.75;;;3.97;;
72601;SDS011;60644;55.858;37.390;2022-10-17T08:28:19;10.07;;;4.30;;
72601;SDS011;60644;55.858;37.390;2022-10-17T08:30:44;10.65;;;3.15;;
72601;SDS011;60644;55.858;37.390;2022-10-17T08:33:10;12.00;;;4.67;;
72601;SDS011;60644;55.858;37.390;2022-10-17T08:35:36;11.15;;;4.10;;
72601;SDS011;60644;55.858;37.390;2022-10-17T08:38:02;11.43;;;4.20;;
72601;SDS011;60644;55.858;37.390;2022-10-17T08:40:29;11.98;;;4.25;;
72601;SDS011;60644;55.858;37.390;2022-10-17T08:45:53;11.27;;;4.80;;
72601;SDS011;60644;55.858;37.390;2022-10-17T08:48:25;10.05;;;4.50;;
72601;SDS011;60644;55.858;37.390;2022-10-17T08:50:54;12.67;;;4.20;;
72601;SDS011;60644;55.858;37.390;2022-10-17T08:56:37;11.70;;;4.53;;
72601;SDS011;60644;55.858;37.390;2022-10-17T08:59:16;11.57;;;3.85;;
72601;SDS011;60644;55.858;37.390;2022-10-17T09:01:49;10.95;;;4.85;;
72601;SDS011;60644;55.858;37.390;2022-10-17T09:04:40;10.90;;;4.63;;
72601;SDS011;60644;55.858;37.390;2022-10-17T09:07:24;12.27;;;4.97;;
72601;SDS011;60644;55.858;37.390;2022-10-17T09:18:25;10.57;;;4.10;;
72601;SDS011;60644;55.858;37.390;2022-10-17T09:20:58;12.98;;;5.13;;
72601;SDS011;60644;55.858;37.390;2022-10-17T09:23:30;9.88;;;4.68;;
72601;SDS011;60644;55.858;37.390;2022-10-17T09:26:01;10.75;;;5.03;;
72601;SDS011;60644;55.858;37.390;2022-10-17T09:28:31;9.77;;;4.50;;
72601;SDS011;60644;55.858;37.390;2022-10-17T09:33:41;11.98;;;5.10;;
72601;SDS011;60644;55.858;37.390;2022-10-17T09:36:10;10.13;;;4.03;;
72601;SDS011;60644;55.858;37.390;2022-10-17T09:38:40;12.13;;;4.57;;
72601;SDS011;60644;55.858;37.390;2022-10-17T09:41:17;11.50;;;4.80;;
72601;SDS011;60644;55.858;37.390;2022-10-17T09:43:44;14.75;;;5.07;;
72601;SDS011;60644;55.858;37.390;2022-10-17T09:49:04;11.18;;;5.03;;
72601;SDS011;60644;55.858;37.390;2022-10-17T09:51:36;11.95;;;5.80;;
72601;SDS011;60644;55.858;37.390;2022-10-17T09:54:04;10.87;;;4.80;;
72601;SDS011;60644;55.858;37.390;2022-10-17T09:59:36;11.18;;;5.25;;
72601;SDS011;60644;55.858;37.390;2022-10-17T10:02:18;13.15;;;4.93;;
72601;SDS011;60644;55.858;37.390;2022-10-17T10:04:56;10.73;;;5.38;;
72601;SDS011;60644;55.858;37.390;2022-10-17T10:07:22;12.23;;;5.07;;
72601;SDS011;60644;55.858;37.390;2022-10-17T10:09:50;12.68;;;5.20;;
72601;SDS011;60644;55.858;37.390;2022-10-17T10:14:41;10.63;;;4.88;;
72601;SDS011;60644;55.858;37.390;2022-10-17T10:17:27;10.63;;;5.40;;
72601;SDS011;60644;55.858;37.390;2022-10-17T10:20:26;12.07;;;6.07;;
72601;SDS011;60644;55.858;37.390;2022-10-17T10:25:48;11.95;;;5.13;;
72601;SDS011;60644;55.858;37.390;2022-10-17T10:28:18;11.53;;;4.87;;
72601;SDS011;60644;55.858;37.390;2022-10-17T10:30:46;12.23;;;4.65;;
72601;SDS011;60644;55.858;37.390;2022-10-17T10:33:14;11.68;;;5.97;;
72601;SDS011;60644;55.858;37.390;2022-10-17T10:35:40;12.30;;;5.22;;
72601;SDS011;60644;55.858;37.390;2022-10-17T10:38:10;13.10;;;5.23;;
72601;SDS011;60644;55.858;37.390;2022-10-17T10:40:47;10.60;;;5.28;;
72601;SDS011;60644;55.858;37.390;2022-10-17T10:43:34;11.15;;;4.85;;
72601;SDS011;60644;55.858;37.390;2022-10-17T10:46:15;13.10;;;4.43;;
72601;SDS011;60644;55.858;37.390;2022-10-17T10:48:52;11.55;;;5.80;;
72601;SDS011;60644;55.858;37.390;2022-10-17T10:51:24;11.33;;;4.90;;
72601;SDS011;60644;55.858;37.390;2022-10-17T10:56:42;11.45;;;5.72;;
72601;SDS011;60644;55.858;37.390;2022-10-17T11:07:16;12.18;;;5.75;;
72601;SDS011;60644;55.858;37.390;2022-10-17T11:12:53;14.30;;;6.03;;
72601;SDS011;60644;55.858;37.390;2022-10-17T11:19:23;12.73;;;5.20;;
72601;SDS011;60644;55.858;37.390;2022-10-17T11:24:50;12.07;;;5.22;;
72601;SDS011;60644;55.858;37.390;2022-10-17T11:27:22;15.07;;;7.30;;
72601;SDS011;60644;55.858;37.390;2022-10-17T11:29:49;13.07;;;6.07;;
72601;SDS011;60644;55.858;37.390;2022-10-17T11:34:55;16.67;;;6.60;;
72601;SDS011;60644;55.858;37.390;2022-10-17T11:37:26;15.05;;;7.13;;
72601;SDS011;60644;55.858;37.390;2022-10-17T11:40:45;12.90;;;6.57;;
72601;SDS011;60644;55.858;37.390;2022-10-17T11:45:47;14.57;;;5.97;;
72601;SDS011;60644;55.858;37.390;2022-10-17T11:51:12;19.15;;;9.48;;
72601;SDS011;60644;55.858;37.390;2022-10-17T11:56:43;16.60;;;7.25;;
72601;SDS011;60644;55.858;37.390;2022-10-17T11:59:30;15.17;;;7.37;;
72601;SDS011;60644;55.858;37.390;2022-10-17T12:02:10;16.58;;;7.38;;
72601;SDS011;60644;55.858;37.390;2022-10-17T12:09:51;16.80;;;8.95;;
72601;SDS011;60644;55.858;37.390;2022-10-17T12:12:37;17.80;;;7.60;;
72601;SDS011;60644;55.858;37.390;2022-10-17T12:17:58;15.85;;;7.22;;
72601;SDS011;60644;55.858;37.390;2022-10-17T12:20:28;16.08;;;8.35;;
72601;SDS011;60644;55.858;37.390;2022-10-17T12:25:46;15.57;;;7.30;;
72601;SDS011;60644;55.858;37.390;2022-10-17T12:28:15;17.60;;;7.22;;
72601;SDS011;60644;55.858;37.390;2022-10-17T12:31:00;14.93;;;6.75;;
72601;SDS011;60644;55.858;37.390;2022-10-17T12:33:31;16.73;;;7.28;;
72601;SDS011;60644;55.858;37.390;2022-10-17T12:38:46;17.20;;;7.53;;
72601;SDS011;60644;55.858;37.390;2022-10-17T12:54:43;16.60;;;7.03;;
72601;SDS011;60644;55.858;37.390;2022-10-17T13:00:00;15.93;;;7.18;;
72601;SDS011;60644;55.858;37.390;2022-10-17T13:02:29;12.43;;;6.63;;
72601;SDS011;60644;55.858;37.390;2022-10-17T13:04:58;15.25;;;7.65;;
72601;SDS011;60644;55.858;37.390;2022-10-17T13:07:32;15.95;;;7.57;;
72601;SDS011;60644;55.858;37.390;2022-10-17T13:10:00;15.07;;;7.22;;
72601;SDS011;60644;55.858;37.390;2022-10-17T13:12:30;13.73;;;6.53;;
72601;SDS011;60644;55.858;37.390;2022-10-17T13:14:59;17.98;;;7.22;;
72601;SDS011;60644;55.858;37.390;2022-10-17T13:17:29;17.65;;;7.20;;
72601;SDS011;60644;55.858;37.390;2022-10-17T13:19:55;15.93;;;7.85;;
72601;SDS011;60644;55.858;37.390;2022-10-17T13:24:50;14.02;;;8.13;;
72601;SDS011;60644;55.858;37.390;2022-10-17T13:29:52;15.57;;;7.97;;
72601;SDS011;60644;55.858;37.390;2022-10-17T13:32:20;17.35;;;7.88;;
72601;SDS011;60644;55.858;37.390;2022-10-17T13:35:03;20.52;;;8.23;;
72601;SDS011;60644;55.858;37.390;2022-10-17T13:37:34;16.52;;;8.13;;
72601;SDS011;60644;55.858;37.390;2022-10-17T13:40:00;19.65;;;8.77;;
72601;SDS011;60644;55.858;37.390;2022-10-17T13:42:30;15.85;;;8.02;;
72601;SDS011;60644;55.858;37.390;2022-10-17T13:45:09;18.10;;;7.85;;
72601;SDS011;60644;55.858;37.390;2022-10-17T13:47:43;18.42;;;8.50;;
72601;SDS011;60644;55.858;37.390;2022-10-17T13:50:21;18.38;;;9.43;;
72601;SDS011;60644;55.858;37.390;2022-10-17T13:55:56;19.27;;;8.35;;
72601;SDS011;60644;55.858;37.390;2022-10-17T13:58:39;18.65;;;8.25;;
72601;SDS011;60644;55.858;37.390;2022-10-17T14:01:07;17.05;;;7.50;;
72601;SDS011;60644;55.858;37.390;2022-10-17T14:03:34;16.02;;;8.07;;
72601;SDS011;60644;55.858;37.390;2022-10-17T14:06:16;18.58;;;7.82;;
72601;SDS011;60644;55.858;37.390;2022-10-17T14:08:56;16.83;;;8.25;;
72601;SDS011;60644;55.858;37.390;2022-10-17T14:11:41;19.88;;;9.40;;
72601;SDS011;60644;55.858;37.390;2022-10-17T14:14:18;20.73;;;9.82;;
72601;SDS011;60644;55.858;37.390;2022-10-17T14:16:46;17.98;;;8.07;;
72601;SDS011;60644;55.858;37.390;2022-10-17T14:19:29;18.63;;;9.18;;
72601;SDS011;60644;55.858;37.390;2022-10-17T14:24:43;21.10;;;8.88;;
72601;SDS011;60644;55.858;37.390;2022-10-17T14:29:55;18.73;;;8.85;;
72601;SDS011;60644;55.858;37.390;2022-10-17T14:32:29;18.37;;;8.63;;
72601;SDS011;60644;55.858;37.390;2022-10-17T14:34:58;20.85;;;9.20;;
72601;SDS011;60644;55.858;37.390;2022-10-17T14:40:00;17.02;;;8.90;;
72601;SDS011;60644;55.858;37.390;2022-10-17T14:42:28;17.05;;;8.85;;
72601;SDS011;60644;55.858;37.390;2022-10-17T14:44:55;19.23;;;8.77;;
72601;SDS011;60644;55.858;37.390;2022-10-17T14:47:29;22.65;;;9.23;;
72601;SDS011;60644;55.858;37.390;2022-10-17T14:52:37;19.85;;;9.68;;
72601;SDS011;60644;55.858;37.390;2022-10-17T14:55:21;18.77;;;8.88;;
72601;SDS011;60644;55.858;37.390;2022-10-17T14:57:49;18.10;;;8.85;;
72601;SDS011;60644;55.858;37.390;2022-10-17T15:00:16;20.42;;;8.27;;
72601;SDS011;60644;55.858;37.390;2022-10-17T15:02:43;20.02;;;8.50;;
72601;SDS011;60644;55.858;37.390;2022-10-17T15:05:10;18.97;;;8.47;;
72601;SDS011;60644;55.858;37.390;2022-10-17T15:07:36;19.55;;;9.25;;
72601;SDS011;60644;55.858;37.390;2022-10-17T15:10:02;20.70;;;9.50;;
72601;SDS011;60644;55.858;37.390;2022-10-17T15:12:29;19.42;;;9.57;;
72601;SDS011;60644;55.858;37.390;2022-10-17T15:14:55;18.33;;;8.93;;
72601;SDS011;60644;55.858;37.390;2022-10-17T15:17:26;22.30;;;10.10;;
72601;SDS011;60644;55.858;37.390;2022-10-17T15:19:55;19.90;;;9.50;;
72601;SDS011;60644;55.858;37.390;2022-10-17T15:22:21;18.20;;;8.73;;
72601;SDS011;60644;55.858;37.390;2022-10-17T15:24:48;22.00;;;9.50;;
72601;SDS011;60644;55.858;37.390;2022-10-17T15:29:44;18.73;;;9.00;;
72601;SDS011;60644;55.858;37.390;2022-10-17T15:32:11;20.13;;;8.52;;
72601;SDS011;60644;55.858;37.390;2022-10-17T15:34:37;19.42;;;8.90;;
72601;SDS011;60644;55.858;37.390;2022-10-17T15:37:03;18.42;;;9.27;;
72601;SDS011;60644;55.858;37.390;2022-10-17T15:39:32;20.67;;;9.65;;
72601;SDS011;60644;55.858;37.390;2022-10-17T15:41:58;19.85;;;8.45;;
72601;SDS011;60644;55.858;37.390;2022-10-17T15:44:24;18.50;;;8.95;;
72601;SDS011;60644;55.858;37.390;2022-10-17T15:46:50;18.83;;;8.90;;
72601;SDS011;60644;55.858;37.390;2022-10-17T15:49:16;21.88;;;9.77;;
72601;SDS011;60644;55.858;37.390;2022-10-17T15:51:44;19.50;;;9.30;;
72601;SDS011;60644;55.858;37.390;2022-10-17T15:54:10;19.25;;;7.82;;
72601;SDS011;60644;55.858;37.390;2022-10-17T15:56:39;20.50;;;10.03;;
72601;SDS011;60644;55.858;37.390;2022-10-17T15:59:09;20.65;;;9.82;;
72601;SDS011;60644;55.858;37.390;2022-10-17T16:01:38;20.08;;;9.57;;
72601;SDS011;60644;55.858;37.390;2022-10-17T16:04:05;17.77;;;8.73;;
72601;SDS011;60644;55.858;37.390;2022-10-17T16:06:31;19.67;;;9.10;;
72601;SDS011;60644;55.858;37.390;2022-10-17T16:08:57;17.27;;;7.75;;
72601;SDS011;60644;55.858;37.390;2022-10-17T16:11:34;16.58;;;8.90;;
72601;SDS011;60644;55.858;37.390;2022-10-17T16:14:02;18.97;;;8.30;;
72601;SDS011;60644;55.858;37.390;2022-10-17T16:16:29;18.30;;;9.15;;
72601;SDS011;60644;55.858;37.390;2022-10-17T16:18:55;16.83;;;7.57;;
72601;SDS011;60644;55.858;37.390;2022-10-17T16:21:23;18.27;;;8.20;;
72601;SDS011;60644;55.858;37.390;2022-10-17T16:23:52;21.13;;;9.63;;
72601;SDS011;60644;55.858;37.390;2022-10-17T16:26:18;17.17;;;8.27;;
72601;SDS011;60644;55.858;37.390;2022-10-17T16:28:44;19.23;;;9.02;;
72601;SDS011;60644;55.858;37.390;2022-10-17T16:33:51;16.35;;;7.95;;
72601;SDS011;60644;55.858;37.390;2022-10-17T16:36:18;17.10;;;8.30;;
72601;SDS011;60644;55.858;37.390;2022-10-17T16:38:44;15.73;;;8.23;;
72601;SDS011;60644;55.858;37.390;2022-10-17T16:43:57;18.80;;;9.13;;
72601;SDS011;60644;55.858;37.390;2022-10-17T16:46:25;17.35;;;8.57;;
72601;SDS011;60644;55.858;37.390;2022-10-17T16:48:52;20.40;;;9.85;;
72601;SDS011;60644;55.858;37.390;2022-10-17T16:51:19;15.60;;;7.82;;
72601;SDS011;60644;55.858;37.390;2022-10-17T16:53:45;17.83;;;8.07;;
72601;SDS011;60644;55.858;37.390;2022-10-17T16:56:19;16.85;;;8.48;;
72601;SDS011;60644;55.858;37.390;2022-10-17T16:58:46;16.98;;;8.45;;
72601;SDS011;60644;55.858;37.390;2022-10-17T17:01:13;19.50;;;9.25;;
72601;SDS011;60644;55.858;37.390;2022-10-17T17:03:41;15.30;;;7.72;;
72601;SDS011;60644;55.858;37.390;2022-10-17T17:06:10;18.40;;;8.20;;
72601;SDS011;60644;55.858;37.390;2022-10-17T17:08:38;18.80;;;9.48;;
72601;SDS011;60644;55.858;37.390;2022-10-17T17:11:05;14.77;;;7.28;;
72601;SDS011;60644;55.858;37.390;2022-10-17T17:13:32;16.00;;;7.30;;
72601;SDS011;60644;55.858;37.390;2022-10-17T17:16:09;15.50;;;7.55;;
72601;SDS011;60644;55.858;37.390;2022-10-17T17:18:42;16.58;;;8.13;;
72601;SDS011;60644;55.858;37.390;2022-10-17T17:21:10;17.60;;;8.43;;